Time;durP1;ratioP1;P1;durP2;ratioP2;P2;SDS_P1;SDS_P2;PMS_P1;PMS_P2;Temp;Humidity;BMP_temperature;BMP_pressure;BME280_temperature;BME280_humidity;BME280_pressure;Samples;Min_cycle;Max_cycle;Signal;HPM_P1;HPM_P2
2023/04/06 00:00:38;;;;;;;18.10;15.10;;;;;;;-0.53;69.95;101263.76;105625;1260;73451;-72
2023/04/06 00:03:05;;;;;;;19.20;15.50;;;;;;;-0.55;70.07;101260.60;105500;1260;61360;-72
2023/04/06 00:05:32;;;;;;;20.90;16.10;;;;;;;-0.57;70.31;101262.59;105657;1260;71539;-71
2023/04/06 00:07:59;;;;;;;19.70;15.80;;;;;;;-0.59;70.41;101259.77;105551;1257;61244;-75
2023/04/06 00:10:26;;;;;;;21.00;16.50;;;;;;;-0.62;70.57;101256.60;105742;1259;62789;-71
2023/04/06 00:12:53;;;;;;;21.90;17.40;;;;;;;-0.62;70.81;101258.36;105582;1260;75279;-74
2023/04/06 00:15:20;;;;;;;21.50;17.40;;;;;;;-0.64;70.80;101253.45;105518;1258;69952;-71
2023/04/06 00:17:47;;;;;;;19.60;15.70;;;;;;;-0.66;71.23;101254.78;105548;1256;73760;-73
2023/04/06 00:20:15;;;;;;;17.80;14.80;;;;;;;-0.68;71.15;101252.11;105410;1259;61350;-70
2023/04/06 00:22:43;;;;;;;18.80;15.10;;;;;;;-0.70;71.35;101251.88;105540;1255;61170;-73
2023/04/06 00:25:10;;;;;;;18.70;15.90;;;;;;;-0.73;71.34;101249.81;105586;1257;74147;-73
2023/04/06 00:27:38;;;;;;;18.80;15.30;;;;;;;-0.75;71.69;101249.42;105683;1259;69779;-70
2023/04/06 00:30:09;;;;;;;18.90;15.30;;;;;;;-0.77;71.65;101248.67;105721;1260;73609;-71
2023/04/06 00:32:36;;;;;;;21.70;15.80;;;;;;;-0.81;71.94;101248.67;105669;1255;61292;-72
2023/04/06 00:35:04;;;;;;;20.60;15.50;;;;;;;-0.82;72.02;101248.05;105493;1259;61278;-70
2023/04/06 00:37:31;;;;;;;18.70;14.50;;;;;;;-0.85;72.26;101242.31;105632;1258;73461;-71
2023/04/06 00:39:58;;;;;;;19.00;14.80;;;;;;;-0.87;72.26;101241.91;105629;1259;68740;-72
2023/04/06 00:42:25;;;;;;;21.20;15.00;;;;;;;-0.90;72.56;101240.17;105600;1260;72503;-70
2023/04/06 00:44:58;;;;;;;19.50;15.40;;;;;;;-0.92;72.71;101242.18;105447;1255;62187;-74
2023/04/06 00:47:25;;;;;;;20.00;15.10;;;;;;;-0.94;72.80;101241.43;105586;1256;61323;-71
2023/04/06 00:49:53;;;;;;;19.30;15.60;;;;;;;-0.96;72.94;101241.73;105544;1258;72537;-75
2023/04/06 00:52:21;;;;;;;19.90;14.60;;;;;;;-0.98;73.09;101238.34;105675;1260;68796;-71
2023/04/06 00:54:48;;;;;;;18.90;14.60;;;;;;;-1.00;73.09;101237.77;105607;1260;72934;-72
2023/04/06 00:57:15;;;;;;;18.10;15.30;;;;;;;-1.01;73.14;101232.96;105544;1257;61295;-71
2023/04/06 00:59:42;;;;;;;18.70;14.90;;;;;;;-1.03;73.21;101228.23;105615;1257;61264;-75
2023/04/06 01:02:09;;;;;;;18.30;14.90;;;;;;;-1.04;73.35;101224.10;105621;1257;73104;-71
2023/04/06 01:04:39;;;;;;;19.60;14.70;;;;;;;-1.04;73.42;101224.13;105528;1257;71207;-73
2023/04/06 01:07:06;;;;;;;16.00;13.70;;;;;;;-1.05;73.43;101224.02;105625;1262;72394;-71
2023/04/06 01:09:33;;;;;;;19.20;14.10;;;;;;;-1.06;73.48;101222.33;105598;1260;61258;-72
2023/04/06 01:11:59;;;;;;;17.10;13.90;;;;;;;-1.07;73.55;101224.43;105577;1262;61271;-72
2023/04/06 01:14:26;;;;;;;18.10;13.90;;;;;;;-1.08;73.63;101218.31;105614;1259;74345;-71
2023/04/06 01:16:53;;;;;;;17.80;13.70;;;;;;;-1.11;73.64;101217.06;105359;1261;69940;-74
2023/04/06 01:19:22;;;;;;;18.50;13.50;;;;;;;-1.13;73.73;101213.19;105554;1256;71808;-70
2023/04/06 01:21:50;;;;;;;16.80;13.10;;;;;;;-1.15;73.95;101210.70;105525;1257;61243;-72
2023/04/06 01:24:17;;;;;;;17.40;13.50;;;;;;;-1.17;73.97;101208.90;105556;1261;61243;-72
2023/04/06 01:26:45;;;;;;;18.40;13.60;;;;;;;-1.19;74.18;101207.65;105732;1260;74980;-72
2023/04/06 01:29:12;;;;;;;16.90;13.10;;;;;;;-1.20;74.03;101205.45;106435;1256;69998;-71
2023/04/06 01:31:39;;;;;;;18.30;13.20;;;;;;;-1.21;74.24;101211.04;105872;1257;73178;-71
2023/04/06 01:34:06;;;;;;;18.00;13.50;;;;;;;-1.22;74.48;101206.40;105795;1254;62413;-71
2023/04/06 01:36:33;;;;;;;16.60;13.70;;;;;;;-1.23;74.42;101205.92;106355;1255;61349;-70
2023/04/06 01:39:00;;;;;;;16.20;13.50;;;;;;;-1.23;74.49;101201.77;106006;1257;73268;-71
2023/04/06 01:41:26;;;;;;;16.70;12.90;;;;;;;-1.23;74.53;101202.64;105521;1254;72249;-71
2023/04/06 01:43:56;;;;;;;16.10;13.30;;;;;;;-1.24;74.57;101203.89;105471;1253;72486;-70
2023/04/06 01:46:22;;;;;;;16.00;13.40;;;;;;;-1.25;74.80;101202.55;105764;1254;62054;-69
2023/04/06 01:48:50;;;;;;;17.70;13.10;;;;;;;-1.26;74.74;101205.73;106626;1257;61851;-71
2023/04/06 01:51:16;;;;;;;16.70;12.80;;;;;;;-1.27;74.91;101203.55;105716;1254;75177;-71
2023/04/06 01:53:43;;;;;;;16.40;13.10;;;;;;;-1.29;74.91;101205.56;106381;1257;69768;-70
2023/04/06 01:56:10;;;;;;;19.70;13.70;;;;;;;-1.30;75.01;101203.70;106024;1254;73162;-72
2023/04/06 01:58:37;;;;;;;18.00;13.10;;;;;;;-1.31;74.89;101203.27;105955;1257;61309;-70
2023/04/06 02:01:04;;;;;;;16.10;13.10;;;;;;;-1.32;75.02;101204.72;105867;1259;61191;-71
2023/04/06 02:03:31;;;;;;;16.70;13.70;;;;;;;-1.34;75.08;101202.57;105665;1261;73589;-70
2023/04/06 02:05:58;;;;;;;15.70;12.50;;;;;;;-1.37;74.93;101202.02;106033;1260;71502;-72
2023/04/06 02:08:25;;;;;;;16.30;13.20;;;;;;;-1.40;75.22;101198.17;105855;1256;72521;-70
2023/04/06 02:10:52;;;;;;;19.90;13.30;;;;;;;-1.41;75.39;101198.45;109029;1254;62011;-70
2023/04/06 02:13:19;;;;;;;16.30;13.00;;;;;;;-1.43;75.33;101199.55;109032;1254;59344;-70
2023/04/06 02:15:45;;;;;;;15.40;12.70;;;;;;;-1.45;75.27;101195.52;105808;1257;74598;-70
2023/04/06 02:18:12;;;;;;;17.30;12.90;;;;;;;-1.47;75.30;101196.00;105829;1258;69823;-72
2023/04/06 02:20:39;;;;;;;17.80;13.10;;;;;;;-1.49;75.29;101194.71;107572;1260;61378;-71
2023/04/06 02:23:07;;;;;;;17.00;12.80;;;;;;;-1.51;75.46;101194.13;106030;1258;61742;-70
2023/04/06 02:25:33;;;;;;;16.30;12.60;;;;;;;-1.52;75.77;101191.75;106237;1254;61228;-71
2023/04/06 02:28:00;;;;;;;16.80;12.10;;;;;;;-1.53;75.87;101190.09;105634;1260;73766;-71
2023/04/06 02:30:28;;;;;;;16.50;11.80;;;;;;;-1.56;76.10;101186.75;106137;1254;70812;-72
2023/04/06 02:32:55;;;;;;;16.50;11.90;;;;;;;-1.57;76.24;101185.63;106041;1257;71648;-70
2023/04/06 02:35:22;;;;;;;16.70;11.60;;;;;;;-1.58;76.24;101187.58;105824;1254;61762;-73
2023/04/06 02:37:49;;;;;;;16.60;10.70;;;;;;;-1.60;76.30;101183.34;105895;1257;61727;-70
2023/04/06 02:40:15;;;;;;;15.90;11.60;;;;;;;-1.60;76.39;101183.91;107535;1254;74557;-70
2023/04/06 02:42:42;;;;;;;14.90;10.80;;;;;;;-1.61;76.37;101181.16;106536;1254;69976;-69
2023/04/06 02:45:09;;;;;;;16.80;11.50;;;;;;;-1.62;76.12;101179.99;105669;1253;72454;-70
2023/04/06 02:47:36;;;;;;;14.90;10.90;;;;;;;-1.62;76.19;101179.84;106130;1257;61763;-69
2023/04/06 02:50:03;;;;;;;14.70;11.50;;;;;;;-1.64;76.27;101181.83;106986;1254;61184;-70
2023/04/06 02:52:30;;;;;;;14.20;10.80;;;;;;;-1.65;76.35;101179.78;105654;1257;74230;-73
2023/04/06 02:54:56;;;;;;;15.10;11.20;;;;;;;-1.66;76.31;101177.10;105825;1257;61349;-71
2023/04/06 02:57:23;;;;;;;15.00;11.20;;;;;;;-1.69;76.25;101174.81;105840;1254;71238;-73
2023/04/06 02:59:50;;;;;;;13.80;10.90;;;;;;;-1.71;76.46;101177.33;105764;1255;61323;-70
2023/04/06 03:02:16;;;;;;;15.00;10.30;;;;;;;-1.72;76.38;101177.23;105934;1254;61653;-70
2023/04/06 03:04:44;;;;;;;15.60;9.90;;;;;;;-1.74;76.59;101176.14;105826;1257;72512;-71
2023/04/06 03:07:11;;;;;;;13.70;10.20;;;;;;;-1.78;76.63;101175.98;105889;1254;71382;-73
2023/04/06 03:09:38;;;;;;;14.30;10.70;;;;;;;-1.81;76.78;101174.60;105934;1257;71381;-70
2023/04/06 03:12:05;;;;;;;15.90;10.00;;;;;;;-1.85;76.84;101169.10;105639;1259;61336;-72
2023/04/06 03:14:35;;;;;;;13.00;9.90;;;;;;;-1.87;76.92;101172.69;105572;1260;61349;-74
2023/04/06 03:17:02;;;;;;;15.30;10.40;;;;;;;-1.89;77.18;101168.60;105822;1254;73498;-71
2023/04/06 03:19:29;;;;;;;14.50;10.20;;;;;;;-1.91;77.16;101168.23;105579;1257;71174;-71
2023/04/06 03:21:55;;;;;;;14.20;9.90;;;;;;;-1.92;77.66;101169.69;105798;1259;72375;-71
2023/04/06 03:24:22;;;;;;;13.70;9.50;;;;;;;-1.94;77.98;101168.01;105552;1261;61244;-72
2023/04/06 03:26:49;;;;;;;13.40;10.00;;;;;;;-1.94;78.07;101170.63;105608;1257;61605;-71
2023/04/06 03:29:15;;;;;;;14.50;10.30;;;;;;;-1.93;78.26;101167.13;105569;1257;73364;-71
2023/04/06 03:31:42;;;;;;;14.30;10.60;;;;;;;-1.93;78.31;101170.73;105547;1254;69653;-72
2023/04/06 03:34:09;;;;;;;15.90;11.00;;;;;;;-1.93;78.29;101171.78;105719;1254;71474;-70
2023/04/06 03:36:36;;;;;;;14.90;10.80;;;;;;;-1.92;78.42;101173.11;105657;1254;61356;-70
2023/04/06 03:39:03;;;;;;;14.50;10.90;;;;;;;-1.93;78.32;101172.29;105680;1254;61217;-72
2023/04/06 03:41:30;;;;;;;17.10;10.90;;;;;;;-1.94;78.90;101169.40;105528;1260;76222;-70
2023/04/06 03:43:59;;;;;;;15.60;10.90;;;;;;;-1.94;78.89;101172.20;105575;1264;69958;-70
2023/04/06 03:46:26;;;;;;;14.60;10.50;;;;;;;-1.94;78.99;101169.43;105676;1260;71554;-70
2023/04/06 03:48:53;;;;;;;14.90;10.80;;;;;;;-1.95;79.00;101170.02;105664;1256;62554;-71
2023/04/06 03:51:20;;;;;;;14.70;11.10;;;;;;;-1.97;78.95;101167.52;105899;1253;61355;-72
2023/04/06 03:53:47;;;;;;;16.10;10.90;;;;;;;-1.98;79.11;101166.86;105625;1260;74457;-73
2023/04/06 03:56:14;;;;;;;16.00;11.00;;;;;;;-2.00;79.17;101167.13;105543;1258;70143;-72
2023/04/06 03:58:41;;;;;;;13.10;10.70;;;;;;;-2.02;79.14;101170.02;105733;1261;72823;-69
2023/04/06 04:01:08;;;;;;;14.90;10.60;;;;;;;-2.02;79.27;101174.17;105686;1257;61671;-73
2023/04/06 04:03:35;;;;;;;15.20;10.60;;;;;;;-2.03;79.43;101172.73;105568;1253;61246;-70
2023/04/06 04:06:02;;;;;;;15.90;10.90;;;;;;;-2.04;79.52;101176.00;105720;1257;73552;-69
2023/04/06 04:08:29;;;;;;;16.00;10.30;;;;;;;-2.04;79.41;101176.20;105610;1254;69674;-71
2023/04/06 04:10:55;;;;;;;15.20;10.80;;;;;;;-2.06;79.65;101171.59;105815;1253;72055;-72
2023/04/06 04:13:22;;;;;;;14.90;11.20;;;;;;;-2.07;79.75;101177.16;105561;1260;61244;-69
2023/04/06 04:15:48;;;;;;;14.70;10.60;;;;;;;-2.06;79.65;101175.43;105764;1254;63005;-74
2023/04/06 04:18:15;;;;;;;14.00;9.80;;;;;;;-2.07;79.72;101175.14;105641;1258;73554;-71
2023/04/06 04:20:42;;;;;;;14.20;10.10;;;;;;;-2.07;79.84;101173.55;105799;1257;70951;-69
2023/04/06 04:23:09;;;;;;;15.50;10.50;;;;;;;-2.05;80.04;101175.21;105612;1257;71421;-72
2023/04/06 04:25:35;;;;;;;15.70;10.30;;;;;;;-2.03;80.15;101172.87;105613;1254;61337;-70
2023/04/06 04:28:02;;;;;;;14.50;9.90;;;;;;;-2.01;80.09;101175.88;105717;1254;61370;-73
2023/04/06 04:30:29;;;;;;;14.40;9.80;;;;;;;-1.99;79.95;101170.92;105978;1253;75805;-69
2023/04/06 04:32:56;;;;;;;13.30;9.50;;;;;;;-1.98;80.22;101171.01;105813;1258;70912;-70
2023/04/06 04:35:22;;;;;;;13.60;9.10;;;;;;;-1.96;80.30;101173.51;105841;1254;71366;-71
2023/04/06 04:37:49;;;;;;;13.40;9.40;;;;;;;-1.94;80.39;101173.94;105751;1254;62025;-69
2023/04/06 04:40:17;;;;;;;13.70;9.50;;;;;;;-1.93;80.55;101173.85;105946;1257;62331;-70
2023/04/06 04:42:43;;;;;;;12.20;8.80;;;;;;;-1.91;80.47;101175.17;105918;1260;75232;-70
2023/04/06 04:45:11;;;;;;;15.20;9.20;;;;;;;-1.91;80.36;101174.61;105657;1260;71403;-70
2023/04/06 04:47:38;;;;;;;15.20;9.50;;;;;;;-1.89;80.06;101174.83;105875;1257;72410;-72
2023/04/06 04:50:05;;;;;;;13.10;9.30;;;;;;;-1.87;80.07;101175.12;105779;1255;61815;-71
2023/04/06 04:52:32;;;;;;;13.80;9.20;;;;;;;-1.85;79.95;101176.56;105909;1254;61286;-72
2023/04/06 04:54:59;;;;;;;13.10;8.50;;;;;;;-1.84;79.89;101176.69;106789;1253;74399;-70
2023/04/06 04:57:25;;;;;;;16.30;9.20;;;;;;;-1.83;79.79;101173.14;106136;1254;71509;-70
2023/04/06 04:59:52;;;;;;;12.20;8.90;;;;;;;-1.81;79.87;101174.63;105975;1255;61327;-69
2023/04/06 05:02:20;;;;;;;15.10;8.90;;;;;;;-1.79;79.77;101172.44;105980;1256;61360;-72
2023/04/06 05:04:47;;;;;;;12.10;8.60;;;;;;;-1.77;79.57;101170.43;106126;1254;61700;-70
2023/04/06 05:07:15;;;;;;;15.40;9.10;;;;;;;-1.75;79.73;101176.55;106052;1254;75026;-69
2023/04/06 05:09:42;;;;;;;12.50;8.40;;;;;;;-1.72;79.57;101175.85;106206;1257;71184;-70
2023/04/06 05:12:09;;;;;;;12.70;8.70;;;;;;;-1.69;79.62;101173.10;106336;1255;72382;-70
2023/04/06 05:14:36;;;;;;;15.00;8.70;;;;;;;-1.65;79.67;101178.60;105839;1261;61346;-70
2023/04/06 05:17:03;;;;;;;12.50;8.40;;;;;;;-1.60;79.68;101179.56;106347;1254;61206;-67
2023/04/06 05:19:30;;;;;;;14.10;8.10;;;;;;;-1.56;79.71;101180.71;105749;1261;73323;-71
2023/04/06 05:21:57;;;;;;;16.40;8.60;;;;;;;-1.51;79.58;101176.64;106134;1254;69635;-69
2023/04/06 05:24:25;;;;;;;14.00;8.40;;;;;;;-1.45;79.48;101179.06;105967;1257;71431;-69
2023/04/06 05:26:52;;;;;;;14.10;7.90;;;;;;;-1.40;79.33;101176.36;106242;1254;61366;-70
2023/04/06 05:29:19;;;;;;;13.10;8.10;;;;;;;-1.36;79.19;101178.02;105999;1254;61638;-72
2023/04/06 05:31:47;;;;;;;17.00;8.10;;;;;;;-1.31;79.14;101176.20;105892;1254;75478;-70
2023/04/06 05:34:13;;;;;;;13.20;7.70;;;;;;;-1.26;79.15;101177.64;106167;1254;71281;-70
2023/04/06 05:36:40;;;;;;;15.30;7.40;;;;;;;-1.19;79.03;101175.71;105464;1255;424903;-71
2023/04/06 05:39:07;;;;;;;12.50;7.60;;;;;;;-1.13;79.09;101172.02;106029;1258;62012;-69
2023/04/06 05:41:35;;;;;;;13.00;7.50;;;;;;;-1.05;78.87;101168.81;106061;1254;61225;-70
2023/04/06 05:44:02;;;;;;;13.90;7.60;;;;;;;-0.96;78.82;101172.48;106262;1256;72813;-70
2023/04/06 05:46:28;;;;;;;12.30;7.30;;;;;;;-0.85;78.68;101171.12;105945;1255;70087;-69
2023/04/06 05:48:56;;;;;;;14.60;7.70;;;;;;;-0.74;78.49;101164.07;106097;1257;71276;-69
2023/04/06 05:51:22;;;;;;;10.60;7.20;;;;;;;-0.63;78.22;101166.51;105868;1258;61373;-71
2023/04/06 05:53:49;;;;;;;12.60;6.90;;;;;;;-0.52;78.14;101167.28;106585;1252;61857;-69
2023/04/06 05:56:16;;;;;;;11.60;7.60;;;;;;;-0.41;77.93;101169.38;106079;1257;74285;-70
2023/04/06 05:58:43;;;;;;;11.00;6.90;;;;;;;-0.30;77.83;101170.10;105800;1257;70919;-70
2023/04/06 06:01:10;;;;;;;11.80;6.90;;;;;;;-0.18;77.69;101165.73;106209;1258;71417;-71
2023/04/06 06:03:37;;;;;;;13.20;6.90;;;;;;;-0.06;77.46;101163.91;105758;1257;61286;-69
2023/04/06 06:06:04;;;;;;;9.40;6.30;;;;;;;0.08;77.33;101163.45;106067;1255;61347;-70
2023/04/06 06:08:31;;;;;;;11.40;6.50;;;;;;;0.21;77.13;101161.40;105518;1260;74942;-70
2023/04/06 06:10:58;;;;;;;10.00;5.90;;;;;;;0.35;76.93;101162.10;108422;1255;70084;-67
2023/04/06 06:13:25;;;;;;;11.20;6.40;;;;;;;0.50;76.54;101165.48;106260;1254;72795;-69
2023/04/06 06:15:51;;;;;;;13.00;6.40;;;;;;;0.66;76.15;101165.33;105663;1255;61248;-70
2023/04/06 06:18:18;;;;;;;10.70;6.00;;;;;;;0.83;75.92;101164.25;106261;1254;61266;-71
2023/04/06 06:20:45;;;;;;;9.60;6.00;;;;;;;0.97;75.50;101161.92;106522;1255;73258;-71
2023/04/06 06:23:12;;;;;;;8.80;5.80;;;;;;;1.12;75.01;101163.35;108544;1254;69688;-69
2023/04/06 06:25:39;;;;;;;10.80;5.80;;;;;;;1.28;74.50;101161.60;108186;1254;70477;-68
2023/04/06 06:28:05;;;;;;;10.40;5.90;;;;;;;1.42;73.95;101163.93;107979;1254;64139;-69
2023/04/06 06:30:32;;;;;;;9.90;6.00;;;;;;;1.56;73.90;101165.61;106578;1257;61255;-69
2023/04/06 06:32:59;;;;;;;7.90;5.80;;;;;;;1.69;72.92;101170.83;107532;1257;74694;-68
2023/04/06 06:35:26;;;;;;;9.00;5.60;;;;;;;1.81;72.91;101169.33;105284;1255;70442;-69
2023/04/06 06:37:53;;;;;;;9.70;5.80;;;;;;;1.95;72.63;101173.08;105493;1254;73634;-70
2023/04/06 06:40:23;;;;;;;11.30;6.00;;;;;;;2.08;72.32;101175.10;105804;1255;61237;-69
2023/04/06 06:42:51;;;;;;;10.80;6.10;;;;;;;2.21;72.16;101175.39;105572;1254;61303;-73
2023/04/06 06:45:18;;;;;;;10.00;5.80;;;;;;;2.36;72.20;101175.77;105486;1257;72353;-69
2023/04/06 06:47:45;;;;;;;13.20;6.10;;;;;;;2.49;71.63;101177.10;105941;1255;69647;-74
2023/04/06 06:50:11;;;;;;;11.70;6.10;;;;;;;2.59;71.19;101178.60;105755;1254;71476;-70
2023/04/06 06:52:38;;;;;;;9.00;5.80;;;;;;;2.71;70.75;101176.73;105896;1255;61384;-68
2023/04/06 06:55:05;;;;;;;9.10;6.00;;;;;;;2.83;70.34;101178.81;105608;1255;61089;-71
2023/04/06 06:57:31;;;;;;;10.70;6.30;;;;;;;2.96;70.33;101173.65;105559;1256;74588;-69
2023/04/06 06:59:59;;;;;;;10.40;6.20;;;;;;;3.11;70.55;101168.16;105866;1255;70098;-69
2023/04/06 07:02:26;;;;;;;9.40;6.50;;;;;;;3.26;70.32;101164.22;105682;1258;72690;-69
2023/04/06 07:04:53;;;;;;;9.80;5.80;;;;;;;3.43;70.26;101163.51;105842;1256;61261;-71
2023/04/06 07:07:20;;;;;;;10.00;5.80;;;;;;;3.56;70.00;101164.96;106274;1255;61350;-70
2023/04/06 07:09:46;;;;;;;11.70;6.00;;;;;;;3.68;69.77;101168.20;105878;1254;74746;-70
2023/04/06 07:12:13;;;;;;;10.50;6.20;;;;;;;3.83;69.36;101163.54;105846;1257;61154;-70
2023/04/06 07:14:40;;;;;;;9.00;5.80;;;;;;;4.00;68.94;101161.34;105909;1257;71205;-69
2023/04/06 07:17:07;;;;;;;9.00;5.90;;;;;;;4.15;68.76;101156.86;109118;1254;61188;-69
2023/04/06 07:19:34;;;;;;;8.30;5.70;;;;;;;4.29;68.49;101156.41;105753;1254;61321;-67
2023/04/06 07:22:02;;;;;;;7.60;5.50;;;;;;;4.39;66.64;101159.11;105837;1254;61366;-70
2023/04/06 07:24:29;;;;;;;7.30;5.20;;;;;;;4.48;63.58;101157.90;105693;1254;71927;-68
2023/04/06 07:26:56;;;;;;;7.80;5.40;;;;;;;4.57;63.23;101156.80;105607;1254;72680;-69
2023/04/06 07:29:23;;;;;;;6.70;4.80;;;;;;;4.70;63.00;101156.48;105701;1254;62137;-72
2023/04/06 07:31:50;;;;;;;7.10;5.00;;;;;;;4.81;62.08;101157.29;105782;1254;61729;-70
2023/04/06 07:34:16;;;;;;;7.90;5.80;;;;;;;4.92;61.98;101154.35;105659;1254;73491;-68
2023/04/06 07:36:43;;;;;;;9.10;5.80;;;;;;;5.04;62.01;101158.87;105767;1254;61223;-73
2023/04/06 07:39:10;;;;;;;6.80;5.00;;;;;;;5.20;61.38;101158.87;105806;1254;61337;-71
2023/04/06 07:41:37;;;;;;;7.40;5.40;;;;;;;5.34;60.49;101155.58;105825;1257;62144;-69
2023/04/06 07:44:04;;;;;;;8.10;5.30;;;;;;;5.47;59.93;101155.98;105770;1256;61633;-72
2023/04/06 07:46:31;;;;;;;6.20;5.00;;;;;;;5.60;59.30;101157.38;105503;1254;74406;-66
2023/04/06 07:49:00;;;;;;;6.40;4.60;;;;;;;5.74;58.40;101152.84;105974;1254;69991;-67
2023/04/06 07:51:27;;;;;;;8.70;5.10;;;;;;;5.89;58.22;101156.13;105778;1255;71151;-69
2023/04/06 07:53:54;;;;;;;6.20;4.80;;;;;;;6.09;57.97;101158.09;105687;1254;61341;-72
2023/04/06 07:56:21;;;;;;;7.60;5.00;;;;;;;6.29;57.14;101158.61;106215;1256;61430;-71
2023/04/06 07:58:48;;;;;;;6.60;4.70;;;;;;;6.48;56.10;101159.19;106459;1255;74184;-70
2023/04/06 08:01:14;;;;;;;8.70;4.60;;;;;;;6.65;54.72;101153.48;106105;1256;71286;-69
2023/04/06 08:03:41;;;;;;;5.90;4.30;;;;;;;6.80;53.23;101154.77;105907;1254;61220;-71
2023/04/06 08:06:08;;;;;;;7.40;4.70;;;;;;;6.93;51.30;101152.89;106276;1254;61243;-70
2023/04/06 08:08:34;;;;;;;7.00;4.80;;;;;;;7.04;49.68;101152.60;105902;1254;61636;-69
2023/04/06 08:11:02;;;;;;;5.50;4.50;;;;;;;7.15;50.04;101156.33;106299;1254;61260;-69
2023/04/06 08:13:29;;;;;;;6.60;4.40;;;;;;;7.33;50.65;101152.58;106049;1258;70020;-70
2023/04/06 08:15:55;;;;;;;8.50;4.90;;;;;;;7.54;49.63;101153.59;105763;1254;61354;-71
2023/04/06 08:18:22;;;;;;;7.10;5.00;;;;;;;7.67;48.16;101153.08;106064;1254;61655;-71
2023/04/06 08:20:49;;;;;;;7.10;4.50;;;;;;;7.82;48.37;101154.18;105542;1255;61231;-71
2023/04/06 08:23:16;;;;;;;6.70;4.50;;;;;;;7.89;47.37;101153.48;105871;1253;73159;-71
2023/04/06 08:25:42;;;;;;;7.80;4.70;;;;;;;7.93;47.26;101153.60;105757;1254;61342;-72
2023/04/06 08:28:09;;;;;;;6.70;4.40;;;;;;;7.98;47.88;101147.49;105918;1254;71670;-69
2023/04/06 08:30:37;;;;;;;6.80;4.70;;;;;;;8.04;47.37;101148.01;105404;1257;61309;-71
2023/04/06 08:33:03;;;;;;;7.80;5.00;;;;;;;8.13;48.02;101144.83;106746;1253;61143;-70
2023/04/06 08:35:30;;;;;;;6.50;4.90;;;;;;;8.26;48.16;101150.64;106660;1254;73649;-72
2023/04/06 08:37:57;;;;;;;6.80;4.70;;;;;;;8.35;48.05;101150.50;107442;1255;71562;-72
2023/04/06 08:40:24;;;;;;;6.10;4.60;;;;;;;8.43;47.55;101150.27;107735;1253;72721;-72
2023/04/06 08:42:56;;;;;;;8.50;5.10;;;;;;;8.52;47.52;101146.02;107946;1254;61287;-71
2023/04/06 08:45:23;;;;;;;5.50;4.10;;;;;;;8.65;47.44;101142.11;107722;1254;61531;-72
2023/04/06 08:47:52;;;;;;;7.80;4.90;;;;;;;8.75;46.71;101137.77;107435;1253;74355;-72
2023/04/06 08:50:19;;;;;;;7.20;5.00;;;;;;;8.86;46.96;101139.38;108524;1254;69801;-73
2023/04/06 08:52:47;;;;;;;8.20;4.90;;;;;;;9.01;46.99;101134.70;105845;1258;73105;-74
2023/04/06 08:55:15;;;;;;;6.60;4.70;;;;;;;9.14;46.36;101133.95;106770;1256;62304;-73
2023/04/06 08:57:43;;;;;;;7.80;5.20;;;;;;;9.21;45.44;101132.31;105994;1254;61399;-73
2023/04/06 09:00:11;;;;;;;5.90;4.80;;;;;;;9.31;44.80;101133.39;105899;1254;73143;-74
2023/04/06 09:02:45;;;;;;;5.30;4.20;;;;;;;9.37;44.26;101134.89;105880;1256;69676;-73
2023/04/06 09:05:12;;;;;;;7.20;5.30;;;;;;;9.44;44.46;101131.95;108656;1254;72716;-71
2023/04/06 09:07:40;;;;;;;6.70;5.00;;;;;;;9.55;43.90;101135.89;108981;1255;59066;-73
2023/04/06 09:10:08;;;;;;;7.60;4.70;;;;;;;9.63;43.16;101137.41;108985;1254;60413;-73
2023/04/06 09:12:35;;;;;;;5.90;4.80;;;;;;;9.73;43.36;101132.99;108982;1254;75182;-73
2023/04/06 09:15:02;;;;;;;7.20;5.00;;;;;;;9.81;42.68;101134.61;108989;1254;70320;-73
2023/04/06 09:17:32;;;;;;;6.50;4.60;;;;;;;9.92;42.57;101135.16;109120;1254;71217;-73
2023/04/06 09:20:01;;;;;;;6.80;5.10;;;;;;;10.05;42.42;101137.70;107035;1260;61328;-73
2023/04/06 09:22:36;;;;;;;8.60;5.30;;;;;;;10.13;41.47;101136.40;105876;1254;61318;-74
2023/04/06 09:25:02;;;;;;;6.40;5.10;;;;;;;10.24;41.57;101135.47;105876;1254;74361;-75
2023/04/06 09:27:34;;;;;;;7.20;5.10;;;;;;;10.37;41.73;101135.16;105810;1255;70378;-74
2023/04/06 09:30:13;;;;;;;7.70;5.00;;;;;;;10.50;41.76;101135.39;105712;1257;71813;-73
2023/04/06 09:33:04;;;;;;;6.00;4.90;;;;;;;10.64;41.57;101134.99;105896;1256;61322;-73
2023/04/06 09:35:32;;;;;;;7.00;4.70;;;;;;;10.76;40.99;101129.43;106078;1255;61232;-73
2023/04/06 09:38:11;;;;;;;6.80;4.80;;;;;;;10.85;40.59;101125.49;105809;1257;75933;-72
2023/04/06 09:40:48;;;;;;;7.40;5.00;;;;;;;10.98;41.02;101121.73;105844;1254;70867;-74
2023/04/06 09:43:27;;;;;;;6.30;5.40;;;;;;;11.14;40.47;101123.08;105868;1258;72493;-74
2023/04/06 09:45:55;;;;;;;7.00;4.80;;;;;;;11.30;39.66;101122.39;105866;1254;61307;-73
2023/04/06 09:48:25;;;;;;;9.20;5.20;;;;;;;11.40;38.33;101118.77;105595;1254;61340;-75
2023/04/06 09:50:59;;;;;;;6.70;5.00;;;;;;;11.53;38.99;101115.75;105682;1258;74518;-73
2023/04/06 09:53:30;;;;;;;7.90;4.70;;;;;;;11.62;38.61;101116.49;105698;1256;71286;-73
2023/04/06 09:56:02;;;;;;;10.00;5.20;;;;;;;11.67;37.81;101114.36;105956;1258;71482;-74
2023/04/06 09:58:36;;;;;;;7.00;4.80;;;;;;;11.78;38.55;101111.85;106460;1256;61276;-73
2023/04/06 10:01:12;;;;;;;7.20;4.80;;;;;;;11.82;38.28;101112.59;107427;1254;61245;-74
2023/04/06 10:04:17;;;;;;;6.60;5.00;;;;;;;11.88;38.45;101107.91;108482;1254;74013;-73
2023/04/06 10:06:47;;;;;;;6.70;5.10;;;;;;;12.00;38.17;101107.63;107818;1254;70385;-73
2023/04/06 10:09:15;;;;;;;7.60;4.80;;;;;;;12.09;37.11;101095.41;107444;1254;71277;-75
2023/04/06 10:11:42;;;;;;;6.20;4.90;;;;;;;12.16;37.07;101097.65;107387;1254;61347;-73
2023/04/06 10:14:09;;;;;;;7.50;4.70;;;;;;;12.25;36.49;101096.08;106750;1254;61301;-73
2023/04/06 10:16:37;;;;;;;11.50;5.60;;;;;;;12.32;36.93;101095.52;106745;1255;74368;-70
2023/04/06 10:19:21;;;;;;;6.90;5.20;;;;;;;12.42;36.31;101089.41;106677;1254;70957;-70
2023/04/06 10:21:53;;;;;;;6.70;5.10;;;;;;;12.52;35.83;101081.58;106506;1255;72436;-70
2023/04/06 10:24:20;;;;;;;6.60;5.20;;;;;;;12.67;35.57;101088.63;105729;1256;61261;-74
2023/04/06 10:27:02;;;;;;;6.20;4.70;;;;;;;12.76;34.54;101095.04;106952;1254;61853;-74
2023/04/06 10:29:43;;;;;;;6.40;4.60;;;;;;;12.71;33.14;101092.41;106643;1259;74961;-74
2023/04/06 10:32:10;;;;;;;7.20;5.10;;;;;;;12.70;34.85;101088.35;107056;1254;70532;-74
2023/04/06 10:34:36;;;;;;;7.00;4.90;;;;;;;12.81;34.85;101085.22;107187;1253;72700;-74
2023/04/06 10:37:18;;;;;;;6.90;5.00;;;;;;;12.91;34.72;101081.69;106515;1261;61513;-74
2023/04/06 10:39:46;;;;;;;6.30;5.00;;;;;;;13.01;34.17;101075.34;106294;1254;61885;-75
2023/04/06 10:42:14;;;;;;;6.60;4.80;;;;;;;13.17;33.82;101071.27;105932;1257;73286;-77
2023/04/06 10:44:44;;;;;;;7.80;5.60;;;;;;;13.31;33.49;101074.52;105958;1254;71292;-74
2023/04/06 10:47:17;;;;;;;8.30;5.10;;;;;;;13.31;31.81;101073.00;107128;1254;72636;-74
2023/04/06 10:49:44;;;;;;;7.20;5.20;;;;;;;13.33;32.23;101066.35;106266;1256;61282;-75
2023/04/06 10:52:12;;;;;;;8.60;5.60;;;;;;;13.39;32.64;101063.90;105912;1255;61666;-76
2023/04/06 10:54:45;;;;;;;6.50;4.60;;;;;;;13.49;32.47;101066.04;106281;1253;73718;-74
2023/04/06 10:57:15;;;;;;;6.20;4.70;;;;;;;13.55;32.34;101064.20;107185;1255;70196;-74
2023/04/06 10:59:43;;;;;;;7.20;5.10;;;;;;;13.64;31.94;101057.01;106958;1253;72431;-74
2023/04/06 11:02:19;;;;;;;6.90;4.70;;;;;;;13.70;31.97;101054.45;107041;1254;59946;-75
2023/04/06 11:04:57;;;;;;;8.10;4.90;;;;;;;13.78;32.00;101059.99;107307;1254;59660;-74
2023/04/06 11:07:25;;;;;;;7.70;4.60;;;;;;;13.86;31.56;101062.52;107228;1254;73152;-74
2023/04/06 11:09:51;;;;;;;6.10;4.70;;;;;;;13.94;31.35;101058.20;106553;1254;70920;-75
2023/04/06 11:12:38;;;;;;;6.10;5.00;;;;;;;13.99;31.00;101054.95;106205;1256;71332;-75
2023/04/06 11:15:05;;;;;;;6.70;4.60;;;;;;;13.99;30.37;101058.27;106063;1254;61808;-74